Time;durP1;ratioP1;P1;durP2;ratioP2;P2;SDS_P1;SDS_P2;PMS_P1;PMS_P2;Temp;Humidity;BMP_temperature;BMP_pressure;BME280_temperature;BME280_humidity;BME280_pressure;Samples;Min_cycle;Max_cycle;Signal;HPM_P1;HPM_P2
2022/09/10 00:02:25;;;;;;;24.25;15.00;;;14.30;99.90;;;;;;5032416;28;20111;-67
2022/09/10 00:04:51;;;;;;;28.20;16.52;;;14.30;99.90;;;;;;5032943;28;20049;-67
2022/09/10 00:07:18;;;;;;;25.15;16.83;;;14.40;99.90;;;;;;5001797;28;20106;-67
2022/09/10 00:09:44;;;;;;;25.92;16.48;;;14.40;99.90;;;;;;5032996;28;20127;-67
2022/09/10 00:12:10;;;;;;;29.25;17.27;;;14.40;99.90;;;;;;5028769;28;20111;-67
2022/09/10 00:14:36;;;;;;;24.10;16.50;;;14.40;99.90;;;;;;5031394;28;20044;-67
2022/09/10 00:17:04;;;;;;;27.73;17.25;;;14.50;99.90;;;;;;5018254;28;20076;-67
2022/09/10 00:19:30;;;;;;;25.60;16.92;;;14.50;99.90;;;;;;5028321;28;20042;-67
2022/09/10 00:21:56;;;;;;;27.73;17.70;;;14.50;99.90;;;;;;5030725;28;20045;-68
2022/09/10 00:24:22;;;;;;;26.27;17.75;;;14.50;99.90;;;;;;5031159;28;20041;-67
2022/09/10 00:26:49;;;;;;;26.23;18.45;;;14.50;99.90;;;;;;5016538;28;20048;-68
2022/09/10 00:29:17;;;;;;;24.00;17.98;;;14.50;99.90;;;;;;5029291;28;20072;-67
2022/09/10 00:31:43;;;;;;;29.85;18.98;;;14.50;99.90;;;;;;5033407;28;20052;-67
2022/09/10 00:34:11;;;;;;;24.35;17.83;;;14.60;99.90;;;;;;5013649;28;20045;-67
2022/09/10 00:36:39;;;;;;;27.50;18.48;;;14.60;99.90;;;;;;5018352;28;20047;-67
2022/09/10 00:39:09;;;;;;;28.17;19.73;;;14.60;99.90;;;;;;5014754;28;20049;-67
2022/09/10 00:41:38;;;;;;;25.77;18.98;;;14.60;99.90;;;;;;5011034;28;20052;-67
2022/09/10 00:44:25;;;;;;;26.75;18.50;;;14.60;99.90;;;;;;5032554;28;20132;-67
2022/09/10 00:46:52;;;;;;;26.52;17.50;;;14.70;99.90;;;;;;4965102;28;20092;-67
2022/09/10 00:49:24;;;;;;;28.80;16.73;;;14.60;99.90;;;;;;5029259;28;20920;-66
2022/09/10 00:51:52;;;;;;;24.77;17.30;;;14.70;99.90;;;;;;5029318;28;20045;-67
2022/09/10 00:54:20;;;;;;;23.05;15.75;;;14.70;99.90;;;;;;5029562;28;20045;-67
2022/09/10 00:56:48;;;;;;;23.80;15.90;;;14.70;99.90;;;;;;4994791;28;20051;-68
2022/09/10 00:59:19;;;;;;;28.00;16.85;;;14.70;99.90;;;;;;5030504;28;20496;-68
2022/09/10 01:01:46;;;;;;;25.48;17.75;;;14.70;99.90;;;;;;5006276;28;20041;-67
2022/09/10 01:04:12;;;;;;;24.25;17.67;;;14.70;99.90;;;;;;5029245;28;20080;-67
2022/09/10 01:06:40;;;;;;;23.20;17.10;;;14.80;99.90;;;;;;5017029;28;20095;-67
2022/09/10 01:09:07;;;;;;;25.23;17.67;;;14.80;99.90;;;;;;5030687;28;20096;-67
2022/09/10 01:11:44;;;;;;;23.40;17.60;;;14.80;99.90;;;;;;5030467;28;20096;-67
2022/09/10 01:14:25;;;;;;;26.15;18.35;;;14.70;99.90;;;;;;5030535;28;20052;-67
2022/09/10 01:17:24;;;;;;;25.90;18.33;;;14.80;99.90;;;;;;5016311;28;20056;-67
2022/09/10 01:20:33;;;;;;;27.77;17.83;;;14.70;99.90;;;;;;5029916;28;20477;-67
2022/09/10 01:23:22;;;;;;;26.60;17.98;;;14.70;99.90;;;;;;5030021;28;20479;-67
2022/09/10 01:25:56;;;;;;;24.30;17.42;;;14.70;99.90;;;;;;5013382;28;20138;-66
2022/09/10 01:28:37;;;;;;;28.67;18.35;;;14.60;99.90;;;;;;4996683;28;20050;-67
2022/09/10 01:31:10;;;;;;;27.05;17.50;;;14.60;99.90;;;;;;5013449;28;20057;-67
2022/09/10 01:33:51;;;;;;;32.30;20.00;;;14.60;99.90;;;;;;5027096;28;20517;-66
2022/09/10 01:36:23;;;;;;;31.90;20.27;;;14.60;99.90;;;;;;5017567;28;20493;-68
2022/09/10 01:38:50;;;;;;;30.60;21.17;;;14.60;99.90;;;;;;5027425;28;20056;-67
2022/09/10 01:41:16;;;;;;;37.15;23.13;;;14.60;99.90;;;;;;5030338;28;20115;-67
2022/09/10 01:43:42;;;;;;;40.97;25.02;;;14.60;99.90;;;;;;5028946;28;20053;-68
2022/09/10 01:46:18;;;;;;;38.45;25.58;;;14.60;99.90;;;;;;5026127;28;20064;-68
2022/09/10 01:49:22;;;;;;;43.83;27.33;;;14.60;99.90;;;;;;5027489;28;20087;-67
2022/09/10 01:52:07;;;;;;;43.38;27.30;;;14.70;99.90;;;;;;5028003;28;20053;-68
2022/09/10 01:54:46;;;;;;;43.72;28.70;;;14.70;99.90;;;;;;5028931;28;20095;-67
2022/09/10 01:57:26;;;;;;;39.88;27.80;;;14.70;99.90;;;;;;5013073;28;20057;-68
2022/09/10 02:00:10;;;;;;;40.30;27.52;;;14.70;99.90;;;;;;5028203;28;20133;-67
2022/09/10 02:02:43;;;;;;;38.45;24.38;;;14.70;99.90;;;;;;5011748;28;20065;-67
2022/09/10 02:05:10;;;;;;;38.05;24.48;;;14.80;99.90;;;;;;5029946;28;20059;-67
2022/09/10 02:07:37;;;;;;;37.42;24.33;;;14.70;99.90;;;;;;5013245;28;20056;-67
2022/09/10 02:10:07;;;;;;;36.47;24.20;;;14.70;99.90;;;;;;5029566;28;20044;-67
2022/09/10 02:12:33;;;;;;;31.88;21.35;;;14.70;99.90;;;;;;5030824;28;20045;-67
2022/09/10 02:14:59;;;;;;;33.70;22.98;;;14.70;99.90;;;;;;5030938;28;20057;-67
2022/09/10 02:17:32;;;;;;;33.90;23.10;;;14.70;99.90;;;;;;5015560;28;20103;-67
2022/09/10 02:20:01;;;;;;;37.65;23.77;;;14.70;99.90;;;;;;5030431;28;20052;-67
2022/09/10 02:22:29;;;;;;;43.90;26.63;;;14.80;99.90;;;;;;4999325;28;20037;-67
2022/09/10 02:24:55;;;;;;;40.42;26.98;;;14.70;99.90;;;;;;5028314;28;20091;-67
2022/09/10 02:27:22;;;;;;;47.67;29.63;;;14.70;99.90;;;;;;4995400;28;20088;-67
2022/09/10 02:29:48;;;;;;;45.65;30.15;;;14.70;99.90;;;;;;5012289;28;20057;-68
2022/09/10 02:32:14;;;;;;;44.63;29.73;;;14.70;99.90;;;;;;5033839;28;20053;-68
2022/09/10 02:34:40;;;;;;;54.00;31.67;;;14.70;99.90;;;;;;5010316;28;20054;-67
2022/09/10 02:37:05;;;;;;;47.38;31.38;;;14.60;99.90;;;;;;5016425;28;20166;-67
2022/09/10 02:39:31;;;;;;;45.03;30.38;;;14.60;99.90;;;;;;5029677;28;20049;-67
2022/09/10 02:41:57;;;;;;;49.45;31.45;;;14.70;99.90;;;;;;4999754;28;20499;-68
2022/09/10 02:44:23;;;;;;;48.42;31.15;;;14.60;99.90;;;;;;5026554;28;20037;-68
2022/09/10 02:46:49;;;;;;;49.30;31.17;;;14.60;99.90;;;;;;5015822;28;20072;-67
2022/09/10 02:49:15;;;;;;;48.15;30.23;;;14.60;99.90;;;;;;5029419;28;20080;-68
2022/09/10 02:51:41;;;;;;;46.78;30.92;;;14.60;99.90;;;;;;5034170;28;20079;-68
2022/09/10 02:54:08;;;;;;;48.90;33.08;;;14.60;99.90;;;;;;5010472;28;20132;-68
2022/09/10 02:56:33;;;;;;;49.80;33.50;;;14.60;99.90;;;;;;5016929;28;20638;-67
2022/09/10 02:58:59;;;;;;;50.35;33.40;;;14.60;99.90;;;;;;5028790;28;20494;-67
2022/09/10 03:01:25;;;;;;;48.85;31.38;;;14.60;99.90;;;;;;5032262;28;20048;-68
2022/09/10 03:03:53;;;;;;;44.13;30.50;;;14.60;99.90;;;;;;5012494;28;20136;-67
2022/09/10 03:06:20;;;;;;;42.40;30.38;;;14.60;99.90;;;;;;5000613;28;20563;-68
2022/09/10 03:08:50;;;;;;;46.58;31.17;;;14.60;99.90;;;;;;5006818;28;20415;-67
2022/09/10 03:11:21;;;;;;;48.00;32.00;;;14.60;99.90;;;;;;5028936;28;20106;-67
2022/09/10 03:13:49;;;;;;;41.53;28.67;;;14.60;99.90;;;;;;5030791;28;20143;-67
2022/09/10 03:16:15;;;;;;;44.47;30.77;;;14.60;99.90;;;;;;5007116;28;20069;-67
2022/09/10 03:18:41;;;;;;;45.35;29.50;;;14.50;99.90;;;;;;5026354;28;20045;-67
2022/09/10 03:21:09;;;;;;;46.72;30.92;;;14.60;99.90;;;;;;5019961;28;20095;-67
2022/09/10 03:23:35;;;;;;;49.70;32.05;;;14.60;99.90;;;;;;5033228;28;20258;-68
2022/09/10 03:26:01;;;;;;;44.85;31.88;;;14.60;99.90;;;;;;4997671;28;20049;-67
2022/09/10 03:28:28;;;;;;;43.78;32.45;;;14.60;99.90;;;;;;5012463;28;20045;-67
2022/09/10 03:30:54;;;;;;;43.85;31.38;;;14.60;99.90;;;;;;5033282;28;20484;-67
2022/09/10 03:33:20;;;;;;;42.17;30.83;;;14.60;99.90;;;;;;5013906;28;20111;-67
2022/09/10 03:35:47;;;;;;;46.92;31.88;;;14.60;99.90;;;;;;5037655;28;20087;-68
2022/09/10 03:38:13;;;;;;;48.72;32.20;;;14.60;99.90;;;;;;4999080;28;20053;-67
2022/09/10 03:40:39;;;;;;;48.92;33.13;;;14.60;99.90;;;;;;5014839;28;20505;-67
2022/09/10 03:43:05;;;;;;;51.45;34.40;;;14.60;99.90;;;;;;5033199;28;20044;-68
2022/09/10 03:45:31;;;;;;;54.35;34.03;;;14.60;99.90;;;;;;5035133;28;20508;-67
2022/09/10 03:47:56;;;;;;;48.97;32.63;;;14.60;99.90;;;;;;5000159;28;20053;-67
2022/09/10 03:50:22;;;;;;;53.35;34.05;;;14.60;99.90;;;;;;5028480;28;20041;-67
2022/09/10 03:52:48;;;;;;;51.88;33.17;;;14.60;99.90;;;;;;5017175;28;20408;-67
2022/09/10 03:55:15;;;;;;;49.20;33.00;;;14.60;99.90;;;;;;5033013;28;20041;-67
2022/09/10 03:57:40;;;;;;;47.47;33.45;;;14.60;99.90;;;;;;5014829;28;20057;-68
2022/09/10 04:00:10;;;;;;;49.38;33.63;;;14.60;99.90;;;;;;5014214;28;20042;-67
2022/09/10 04:02:36;;;;;;;50.47;34.28;;;14.60;99.90;;;;;;5016460;28;20048;-67
2022/09/10 04:05:03;;;;;;;48.70;34.03;;;14.60;99.90;;;;;;5032757;28;20052;-67
2022/09/10 04:07:29;;;;;;;48.75;33.80;;;14.60;99.90;;;;;;5017425;28;20076;-67
2022/09/10 04:09:55;;;;;;;52.33;34.63;;;14.50;99.90;;;;;;5015060;28;20083;-67
2022/09/10 04:12:20;;;;;;;56.47;35.67;;;14.50;99.90;;;;;;5014125;28;20115;-67
2022/09/10 04:14:46;;;;;;;50.85;33.70;;;14.50;99.90;;;;;;5015788;28;20057;-67
2022/09/10 04:17:11;;;;;;;51.28;33.65;;;14.50;99.90;;;;;;5002771;28;20460;-68
2022/09/10 04:19:39;;;;;;;51.22;33.08;;;14.50;99.90;;;;;;5017495;28;20098;-67
2022/09/10 04:22:06;;;;;;;52.28;35.05;;;14.40;99.90;;;;;;5037737;28;20324;-67
2022/09/10 04:24:31;;;;;;;46.15;32.38;;;14.40;99.90;;;;;;5036715;28;20057;-67
2022/09/10 04:26:57;;;;;;;47.67;32.67;;;14.50;99.90;;;;;;5003723;28;20099;-67
2022/09/10 04:29:23;;;;;;;53.03;32.63;;;14.50;99.90;;;;;;5036327;28;20045;-67
2022/09/10 04:31:49;;;;;;;49.05;32.50;;;14.50;99.90;;;;;;5037234;28;20072;-67
2022/09/10 04:34:15;;;;;;;45.88;31.40;;;14.50;99.90;;;;;;5020330;28;20136;-67
2022/09/10 04:36:41;;;;;;;45.70;31.95;;;14.40;99.90;;;;;;5003203;28;20482;-67
2022/09/10 04:39:07;;;;;;;48.58;31.23;;;14.50;99.90;;;;;;5003345;28;20056;-67
2022/09/10 04:41:33;;;;;;;48.50;30.77;;;14.40;99.90;;;;;;5035546;28;20033;-66
2022/09/10 04:43:58;;;;;;;48.08;32.80;;;14.50;99.90;;;;;;5022346;28;20053;-67
2022/09/10 04:46:24;;;;;;;52.40;33.65;;;14.50;99.90;;;;;;5021219;28;20044;-68
2022/09/10 04:48:50;;;;;;;51.05;33.70;;;14.50;99.90;;;;;;5033495;28;20057;-67
2022/09/10 04:51:17;;;;;;;52.00;34.13;;;14.50;99.90;;;;;;5033692;28;20052;-68
2022/09/10 04:53:43;;;;;;;52.10;33.63;;;14.50;99.90;;;;;;5016196;28;20055;-68
2022/09/10 04:56:09;;;;;;;50.25;33.38;;;14.50;99.90;;;;;;5032015;28;20140;-69
2022/09/10 04:58:34;;;;;;;50.10;33.25;;;14.40;99.90;;;;;;5005513;28;20124;-67
2022/09/10 05:01:00;;;;;;;48.72;32.38;;;14.50;99.90;;;;;;5039234;28;20071;-67
2022/09/10 05:03:26;;;;;;;49.70;32.38;;;14.50;99.90;;;;;;5034953;28;20044;-67
2022/09/10 05:05:51;;;;;;;46.95;31.58;;;14.50;99.90;;;;;;5037125;28;20041;-67
2022/09/10 05:08:17;;;;;;;46.58;32.40;;;14.50;99.90;;;;;;5002198;28;20083;-68
2022/09/10 05:10:44;;;;;;;48.85;32.78;;;14.50;99.90;;;;;;5035938;28;20049;-68
2022/09/10 05:13:10;;;;;;;49.28;31.38;;;14.60;99.90;;;;;;5039121;28;20417;-68
2022/09/10 05:15:39;;;;;;;47.97;31.77;;;14.60;99.90;;;;;;5037151;28;20537;-68
2022/09/10 05:18:06;;;;;;;49.03;31.55;;;14.60;99.90;;;;;;5018717;28;20053;-68
2022/09/10 05:20:32;;;;;;;50.33;31.95;;;14.60;99.90;;;;;;5019619;28;20540;-69
2022/09/10 05:22:58;;;;;;;53.45;32.55;;;14.60;99.90;;;;;;5016264;28;20474;-67
2022/09/10 05:25:24;;;;;;;51.47;31.67;;;14.60;99.90;;;;;;5019488;28;20048;-68
2022/09/10 05:27:50;;;;;;;50.38;31.45;;;14.60;99.90;;;;;;5018515;28;20632;-68
2022/09/10 05:30:17;;;;;;;51.05;32.30;;;14.70;99.90;;;;;;5036412;28;20115;-68
2022/09/10 05:32:42;;;;;;;48.17;32.28;;;14.70;99.90;;;;;;5036857;28;20114;-68
2022/09/10 05:35:09;;;;;;;46.15;32.78;;;14.70;99.90;;;;;;5018983;28;20037;-68
2022/09/10 05:37:35;;;;;;;52.17;33.58;;;14.70;99.90;;;;;;5003828;28;20085;-68
2022/09/10 05:40:03;;;;;;;48.08;30.10;;;14.70;99.90;;;;;;5016922;28;20136;-68
2022/09/10 05:42:29;;;;;;;45.85;31.35;;;14.70;99.90;;;;;;5012675;28;20110;-68
2022/09/10 05:44:55;;;;;;;42.22;29.48;;;14.80;99.90;;;;;;5033915;28;20547;-69
2022/09/10 05:47:21;;;;;;;44.05;30.10;;;14.70;99.90;;;;;;5016762;28;20047;-69
2022/09/10 05:49:48;;;;;;;44.35;29.45;;;14.80;99.90;;;;;;5019801;28;20563;-68
2022/09/10 05:52:14;;;;;;;40.55;28.63;;;14.80;99.90;;;;;;5016662;28;20082;-68
2022/09/10 05:54:40;;;;;;;39.05;29.10;;;14.80;99.90;;;;;;5013012;28;20547;-68
2022/09/10 05:57:06;;;;;;;40.85;28.45;;;14.90;99.90;;;;;;5000327;28;20053;-68
2022/09/10 05:59:33;;;;;;;42.20;29.50;;;14.90;99.90;;;;;;5011976;28;20077;-68
2022/09/10 06:01:59;;;;;;;46.17;28.63;;;14.90;99.90;;;;;;5015065;28;20053;-68
2022/09/10 06:04:25;;;;;;;35.88;26.27;;;14.90;99.90;;;;;;5013048;28;20042;-68
2022/09/10 06:06:52;;;;;;;40.47;27.98;;;14.90;99.90;;;;;;5001497;28;20568;-68
2022/09/10 06:09:18;;;;;;;41.22;28.13;;;14.90;99.90;;;;;;5012246;28;20042;-68
2022/09/10 06:11:46;;;;;;;41.20;27.92;;;15.00;99.90;;;;;;5015987;28;20523;-68
2022/09/10 06:14:13;;;;;;;34.22;25.80;;;15.00;99.90;;;;;;5015881;28;20086;-69
2022/09/10 06:16:40;;;;;;;37.50;25.90;;;15.00;99.90;;;;;;5004432;28;20057;-68
2022/09/10 06:19:07;;;;;;;37.58;26.10;;;15.00;99.90;;;;;;5015307;28;20146;-68
2022/09/10 06:21:32;;;;;;;39.58;26.67;;;15.00;99.90;;;;;;5017878;28;20049;-68
2022/09/10 06:23:58;;;;;;;35.70;26.73;;;15.10;99.90;;;;;;5013588;28;20506;-68
2022/09/10 06:26:24;;;;;;;40.17;26.98;;;15.10;99.90;;;;;;5003491;28;20049;-68
2022/09/10 06:28:50;;;;;;;35.00;26.25;;;15.10;99.90;;;;;;5011338;28;20106;-68
2022/09/10 06:31:18;;;;;;;34.90;25.35;;;15.10;99.90;;;;;;5000081;28;20083;-68
2022/09/10 06:33:47;;;;;;;33.55;25.55;;;15.10;99.90;;;;;;5001112;28;20064;-68
2022/09/10 06:36:13;;;;;;;36.85;25.45;;;15.10;99.90;;;;;;5007903;28;20094;-69
2022/09/10 06:38:39;;;;;;;40.00;26.17;;;15.10;99.90;;;;;;5008700;28;20928;-68
2022/09/10 06:41:10;;;;;;;38.20;26.52;;;15.10;99.90;;;;;;5011843;28;20053;-68
2022/09/10 06:43:37;;;;;;;40.88;25.58;;;15.20;99.90;;;;;;5012303;28;20408;-68
2022/09/10 06:46:08;;;;;;;34.80;25.40;;;15.10;99.90;;;;;;5011991;28;20038;-68
2022/09/10 06:48:38;;;;;;;31.52;23.92;;;15.00;99.90;;;;;;4999996;28;20069;-68
2022/09/10 06:51:09;;;;;;;34.47;24.77;;;15.20;99.90;;;;;;5012924;28;20089;-68
2022/09/10 06:53:35;;;;;;;34.33;24.08;;;15.20;99.90;;;;;;5009542;28;20057;-68
2022/09/10 06:56:02;;;;;;;32.50;24.52;;;15.30;99.90;;;;;;5011168;28;21624;-68
2022/09/10 06:58:30;;;;;;;34.97;24.98;;;15.30;99.90;;;;;;4993965;28;20135;-68
2022/09/10 07:00:56;;;;;;;30.50;24.58;;;15.30;99.90;;;;;;5011216;28;20121;-68
2022/09/10 07:03:22;;;;;;;35.75;25.05;;;15.30;99.90;;;;;;5009304;28;20046;-69
2022/09/10 07:05:49;;;;;;;36.15;25.08;;;15.30;99.90;;;;;;5012302;28;20061;-69
2022/09/10 07:08:16;;;;;;;34.63;24.23;;;15.30;99.90;;;;;;4999731;28;20057;-69
2022/09/10 07:10:44;;;;;;;34.15;23.92;;;15.40;99.90;;;;;;5022133;28;20050;-69
2022/09/10 07:13:13;;;;;;;34.00;24.05;;;15.40;99.90;;;;;;5014644;28;20284;-69
2022/09/10 07:15:46;;;;;;;34.70;24.70;;;15.40;99.90;;;;;;5028821;28;21157;-69
2022/09/10 07:18:13;;;;;;;35.28;25.05;;;15.40;99.90;;;;;;4999147;28;20122;-69
2022/09/10 07:20:42;;;;;;;33.08;24.67;;;15.40;99.90;;;;;;5011717;28;20397;-69
2022/09/10 07:23:13;;;;;;;31.80;24.23;;;15.40;99.90;;;;;;5013232;28;20045;-69
2022/09/10 07:25:39;;;;;;;37.65;26.20;;;15.50;99.90;;;;;;5027575;28;20074;-69
2022/09/10 07:28:05;;;;;;;33.47;24.85;;;15.50;99.90;;;;;;4994429;28;20487;-68
2022/09/10 07:30:34;;;;;;;34.67;24.63;;;15.50;99.90;;;;;;5011995;28;20099;-68
2022/09/10 07:33:00;;;;;;;36.70;25.25;;;15.60;99.90;;;;;;5013600;28;21408;-68
2022/09/10 07:35:25;;;;;;;37.17;25.85;;;15.60;99.90;;;;;;5010302;28;20033;-68
2022/09/10 07:37:51;;;;;;;34.05;24.83;;;15.70;99.90;;;;;;4999049;28;20136;-68
2022/09/10 07:40:17;;;;;;;34.53;24.92;;;15.70;99.90;;;;;;5012505;28;20038;-69
2022/09/10 07:42:43;;;;;;;32.80;24.08;;;15.80;99.90;;;;;;5014345;28;20053;-69
2022/09/10 07:45:12;;;;;;;34.15;25.25;;;15.70;99.90;;;;;;5015413;28;20042;-69
2022/09/10 07:47:39;;;;;;;37.25;25.00;;;15.80;99.90;;;;;;4997216;28;20057;-68
2022/09/10 07:50:06;;;;;;;36.20;24.23;;;15.80;99.90;;;;;;5035547;28;20110;-69
2022/09/10 07:52:32;;;;;;;36.42;25.10;;;15.80;99.90;;;;;;5025712;28;20106;-69
2022/09/10 07:54:59;;;;;;;31.98;24.13;;;15.80;99.90;;;;;;5005099;28;20075;-69
2022/09/10 07:57:25;;;;;;;33.67;23.88;;;15.80;99.90;;;;;;5024014;28;20456;-68
2022/09/10 07:59:52;;;;;;;36.03;24.80;;;15.80;99.90;;;;;;5040275;28;20458;-69
2022/09/10 08:02:19;;;;;;;31.33;22.77;;;15.90;99.90;;;;;;5032645;28;20115;-69
2022/09/10 08:04:45;;;;;;;35.35;24.27;;;16.00;99.90;;;;;;5034237;28;20053;-69
2022/09/10 08:07:11;;;;;;;32.10;22.70;;;15.90;99.90;;;;;;5001564;28;20106;-69
2022/09/10 08:09:37;;;;;;;33.65;23.92;;;16.00;99.90;;;;;;5037970;28;20045;-69
2022/09/10 08:12:06;;;;;;;35.53;24.77;;;16.10;99.90;;;;;;5038627;28;20519;-69
2022/09/10 08:14:32;;;;;;;33.83;23.50;;;16.10;99.90;;;;;;5036402;28;20049;-69
2022/09/10 08:16:57;;;;;;;31.40;22.45;;;16.10;99.90;;;;;;5004562;28;20041;-69
2022/09/10 08:19:23;;;;;;;33.15;22.40;;;16.20;99.90;;;;;;5032068;28;20512;-69
2022/09/10 08:21:50;;;;;;;30.98;22.63;;;16.20;99.90;;;;;;5034660;28;20177;-68
2022/09/10 08:24:15;;;;;;;33.20;21.95;;;16.20;99.90;;;;;;5036590;28;20145;-69
2022/09/10 08:26:41;;;;;;;30.63;21.48;;;16.20;99.90;;;;;;5021574;28;20483;-69
2022/09/10 08:29:07;;;;;;;30.13;20.98;;;16.30;99.90;;;;;;5020767;28;20056;-69
2022/09/10 08:31:33;;;;;;;28.90;21.38;;;16.30;99.90;;;;;;5037371;28;20050;-69
2022/09/10 08:33:59;;;;;;;30.15;20.67;;;16.30;99.90;;;;;;5032605;28;20475;-69
2022/09/10 08:36:25;;;;;;;32.22;21.77;;;16.40;99.90;;;;;;5024116;28;20644;-69
2022/09/10 08:38:52;;;;;;;30.00;21.80;;;16.30;99.90;;;;;;5030945;28;20046;-69
2022/09/10 08:41:25;;;;;;;29.52;21.52;;;16.40;99.90;;;;;;5035483;28;20048;-69
2022/09/10 08:43:56;;;;;;;28.42;20.67;;;16.40;99.90;;;;;;5032242;28;20045;-69
2022/09/10 08:46:30;;;;;;;29.30;20.45;;;16.40;99.90;;;;;;5025961;28;20084;-70
2022/09/10 08:49:23;;;;;;;28.73;20.42;;;16.40;99.90;;;;;;5035080;28;20147;-69
2022/09/10 08:51:59;;;;;;;29.65;21.92;;;16.40;99.90;;;;;;5040670;28;20052;-69
2022/09/10 08:54:41;;;;;;;28.73;19.30;;;16.40;99.90;;;;;;5035697;28;20516;-69
2022/09/10 08:57:21;;;;;;;31.85;19.33;;;16.40;99.90;;;;;;5025216;28;20052;-68
2022/09/10 08:59:51;;;;;;;27.27;18.73;;;16.40;99.90;;;;;;5043617;28;20438;-69
2022/09/10 09:02:38;;;;;;;30.15;19.48;;;16.40;99.90;;;;;;5043768;28;20057;-69
2022/09/10 09:05:18;;;;;;;25.38;17.80;;;16.40;99.90;;;;;;5025579;28;20191;-69
2022/09/10 09:07:45;;;;;;;21.60;14.77;;;16.40;99.90;;;;;;5026235;28;20049;-69
2022/09/10 09:10:43;;;;;;;22.55;16.10;;;16.40;99.90;;;;;;5045459;28;20045;-69
2022/09/10 09:13:21;;;;;;;23.77;15.82;;;16.50;99.90;;;;;;5039904;28;20057;-69
2022/09/10 09:15:56;;;;;;;23.40;15.80;;;16.50;99.90;;;;;;5043337;28;20125;-69
2022/09/10 09:18:28;;;;;;;24.42;16.73;;;16.50;99.90;;;;;;5025219;28;20060;-69
2022/09/10 09:20:56;;;;;;;20.77;15.80;;;16.50;99.90;;;;;;5039868;28;20049;-68
2022/09/10 09:23:24;;;;;;;23.85;17.13;;;16.50;99.90;;;;;;5039826;28;20045;-69
2022/09/10 09:25:57;;;;;;;27.10;17.30;;;16.50;99.90;;;;;;5044868;28;20106;-69
2022/09/10 09:28:47;;;;;;;23.17;17.25;;;16.50;99.90;;;;;;5023898;28;20077;-69
2022/09/10 09:31:24;;;;;;;25.88;18.52;;;16.50;99.90;;;;;;5041774;28;20092;-69
2022/09/10 09:33:52;;;;;;;22.38;17.95;;;16.60;99.90;;;;;;5039759;28;20069;-69
2022/09/10 09:36:26;;;;;;;24.80;17.33;;;16.60;99.90;;;;;;5030430;28;20045;-69
2022/09/10 09:38:51;;;;;;;26.77;18.50;;;16.60;99.90;;;;;;5037486;28;20059;-70
2022/09/10 09:41:41;;;;;;;22.42;16.15;;;16.70;99.90;;;;;;5038895;28;20041;-69
2022/09/10 09:44:37;;;;;;;19.58;15.15;;;16.70;99.90;;;;;;5043074;28;20045;-69
2022/09/10 09:47:03;;;;;;;19.40;13.85;;;16.80;99.90;;;;;;5025484;28;20083;-69
2022/09/10 09:49:29;;;;;;;18.65;13.55;;;16.70;99.90;;;;;;5043156;28;20102;-69
2022/09/10 09:51:56;;;;;;;20.17;14.43;;;16.70;99.90;;;;;;5041972;28;20053;-69
2022/09/10 09:54:26;;;;;;;20.40;15.27;;;16.60;99.90;;;;;;5037888;28;20045;-69
2022/09/10 09:56:55;;;;;;;21.38;14.80;;;16.70;99.90;;;;;;5023828;28;20345;-69
2022/09/10 09:59:35;;;;;;;20.33;15.23;;;16.60;99.90;;;;;;5040069;28;20084;-69
2022/09/10 10:02:11;;;;;;;20.63;14.27;;;16.70;99.90;;;;;;5042656;28;20041;-69
2022/09/10 10:04:40;;;;;;;23.52;13.95;;;16.70;99.90;;;;;;5037520;28;20496;-69
2022/09/10 10:07:06;;;;;;;20.75;14.05;;;16.70;99.90;;;;;;5026327;28;20135;-68
2022/09/10 10:09:37;;;;;;;20.92;14.27;;;16.70;99.90;;;;;;5040835;28;20419;-69
2022/09/10 10:12:04;;;;;;;19.75;14.25;;;16.60;99.90;;;;;;5040009;28;20398;-69
2022/09/10 10:14:30;;;;;;;23.52;14.85;;;16.60;99.90;;;;;;5040973;28;20069;-69
2022/09/10 10:16:57;;;;;;;20.58;14.80;;;16.60;99.90;;;;;;5023854;28;20128;-69
2022/09/10 10:19:37;;;;;;;21.10;15.15;;;16.70;99.90;;;;;;5043010;28;20037;-69
2022/09/10 10:22:18;;;;;;;22.13;14.75;;;16.80;99.90;;;;;;5038941;28;20045;-69
2022/09/10 10:24:46;;;;;;;24.52;16.23;;;16.90;99.90;;;;;;5039612;28;20380;-69
2022/09/10 10:27:41;;;;;;;21.70;15.43;;;17.00;99.90;;;;;;5020615;28;20211;-68
2022/09/10 10:30:15;;;;;;;22.98;15.32;;;17.10;99.90;;;;;;5042766;28;20458;-69
2022/09/10 10:32:54;;;;;;;25.67;16.73;;;17.20;99.90;;;;;;5039594;28;20559;-69
2022/09/10 10:35:47;;;;;;;23.98;17.42;;;17.30;99.90;;;;;;5041290;28;20049;-69
2022/09/10 10:38:33;;;;;;;20.77;15.18;;;17.30;99.90;;;;;;5024722;28;20049;-69
2022/09/10 10:41:04;;;;;;;20.65;16.30;;;17.30;99.90;;;;;;5039998;28;20045;-69
2022/09/10 10:43:51;;;;;;;21.95;15.38;;;17.20;99.90;;;;;;5038246;28;20064;-68
2022/09/10 10:46:20;;;;;;;18.98;15.13;;;17.30;99.90;;;;;;5027250;28;20059;-70
2022/09/10 10:49:31;;;;;;;22.40;15.65;;;17.30;99.90;;;;;;5037618;28;20504;-69
2022/09/10 10:52:09;;;;;;;21.90;15.95;;;17.50;99.90;;;;;;5036911;28;20525;-69
2022/09/10 10:54:59;;;;;;;23.35;16.70;;;17.40;99.90;;;;;;5033608;28;20817;-69
2022/09/10 10:57:43;;;;;;;19.67;14.82;;;17.40;99.90;;;;;;5020418;28;20052;-69
2022/09/10 11:00:11;;;;;;;22.30;15.10;;;17.50;99.90;;;;;;5040407;28;20119;-69
2022/09/10 11:02:45;;;;;;;25.05;14.35;;;17.50;99.90;;;;;;5036452;28;20049;-69
2022/09/10 11:05:23;;;;;;;20.77;12.68;;;17.60;99.90;;;;;;5035531;28;20499;-68
2022/09/10 11:07:48;;;;;;;26.05;14.52;;;17.70;99.90;;;;;;5022703;28;20143;-68
2022/09/10 11:10:42;;;;;;;17.90;13.02;;;17.80;99.90;;;;;;5045123;28;20120;-69
2022/09/10 11:13:20;;;;;;;18.88;13.70;;;17.90;99.90;;;;;;5040745;28;20088;-69
2022/09/10 11:16:04;;;;;;;17.45;13.88;;;17.90;99.90;;;;;;5040072;28;20045;-69
2022/09/10 11:18:39;;;;;;;18.52;13.60;;;17.90;99.90;;;;;;5024618;28;20090;-70
2022/09/10 11:21:37;;;;;;;20.17;13.65;;;17.90;99.90;;;;;;5042019;28;20057;-69
2022/09/10 11:24:41;;;;;;;17.88;12.80;;;17.90;99.90;;;;;;5024243;28;20060;-69
2022/09/10 11:27:38;;;;;;;16.45;13.00;;;17.90;99.90;;;;;;5029705;28;20635;-68
2022/09/10 11:30:15;;;;;;;18.10;12.90;;;18.00;99.90;;;;;;5042722;28;20044;-69
2022/09/10 11:32:53;;;;;;;18.30;13.68;;;18.00;99.90;;;;;;5040501;28;20042;-69
2022/09/10 11:35:27;;;;;;;16.75;12.20;;;18.20;99.90;;;;;;5040702;28;20053;-69
2022/09/10 11:38:02;;;;;;;13.98;10.60;;;18.30;99.90;;;;;;5029329;28;20076;-70
2022/09/10 11:40:34;;;;;;;13.23;11.48;;;18.10;99.90;;;;;;5045363;28;21655;-69
2022/09/10 11:43:11;;;;;;;13.82;11.25;;;18.30;99.90;;;;;;5038440;28;20041;-69
2022/09/10 11:46:00;;;;;;;15.57;10.77;;;18.30;99.90;;;;;;5040943;28;20103;-68
2022/09/10 11:48:39;;;;;;;14.98;10.15;;;18.40;99.90;;;;;;5029732;28;20049;-69
2022/09/10 11:51:07;;;;;;;17.77;10.82;;;18.50;99.90;;;;;;5042183;28;20546;-69
2022/09/10 11:53:35;;;;;;;15.57;11.88;;;18.60;99.90;;;;;;5040517;28;20041;-69
2022/09/10 11:56:18;;;;;;;15.30;11.38;;;18.40;99.90;;;;;;5038783;28;20060;-68
2022/09/10 11:58:59;;;;;;;15.23;10.48;;;18.40;99.90;;;;;;5039370;28;20106;-69
2022/09/10 12:01:30;;;;;;;18.02;12.30;;;18.50;99.90;;;;;;5043494;28;20058;-68
2022/09/10 12:04:38;;;;;;;14.98;11.93;;;18.50;99.90;;;;;;5038952;28;20041;-68
2022/09/10 12:07:09;;;;;;;18.20;11.60;;;18.60;99.90;;;;;;5001951;28;20519;-69
2022/09/10 12:10:00;;;;;;;15.05;11.40;;;18.70;99.90;;;;;;5040923;28;20050;-69
2022/09/10 12:12:39;;;;;;;13.75;11.20;;;18.80;99.90;;;;;;5043351;28;20045;-69
2022/09/10 12:15:26;;;;;;;11.73;9.07;;;18.60;99.90;;;;;;5040693;28;20207;-69
2022/09/10 12:17:51;;;;;;;11.75;9.48;;;18.60;99.90;;;;;;5029181;28;20561;-69
2022/09/10 12:20:31;;;;;;;13.77;9.77;;;18.70;99.90;;;;;;5044408;28;20049;-68
2022/09/10 12:22:58;;;;;;;8.98;7.90;;;18.70;99.90;;;;;;5044129;28;20337;-69
2022/09/10 12:25:29;;;;;;;10.50;8.48;;;18.70;99.90;;;;;;5040578;28;20054;-69
2022/09/10 12:27:57;;;;;;;11.48;7.88;;;18.80;99.90;;;;;;5029291;28;20518;-69
2022/09/10 12:30:30;;;;;;;12.57;7.68;;;18.90;99.90;;;;;;5046001;28;20045;-69
2022/09/10 12:33:15;;;;;;;13.65;8.68;;;18.90;99.90;;;;;;5043141;28;20045;-69
2022/09/10 12:35:48;;;;;;;11.07;7.88;;;18.90;99.90;;;;;;5012103;28;20052;-69
2022/09/10 12:38:45;;;;;;;11.25;7.65;;;18.90;99.90;;;;;;5024158;28;20056;-69
2022/09/10 12:41:22;;;;;;;12.13;8.35;;;18.90;99.90;;;;;;5043883;28;20688;-69
2022/09/10 12:43:48;;;;;;;10.13;7.43;;;18.90;99.90;;;;;;5040627;28;20103;-69
2022/09/10 12:46:13;;;;;;;9.65;6.70;;;18.90;99.90;;;;;;5029913;28;20432;-70
2022/09/10 12:48:45;;;;;;;9.55;6.65;;;19.00;99.90;;;;;;5037259;28;20400;-69